createdAt,value
2023-09-14T00:01:56.215Z,7.88
2023-09-14T00:05:19.248Z,10.38
2023-09-14T00:08:40.836Z,8.82
2023-09-14T00:12:04.218Z,6.22
2023-09-14T00:15:26.160Z,7.20
2023-09-14T00:18:48.294Z,8.52
2023-09-14T00:22:11.798Z,7.85
2023-09-14T00:25:33.319Z,7.88
2023-09-14T00:28:54.682Z,8.60
2023-09-14T00:32:16.114Z,9.25
2023-09-14T00:35:38.090Z,9.50
2023-09-14T00:39:01.289Z,7.10
2023-09-14T00:42:22.910Z,8.75
2023-09-14T00:45:44.786Z,8.32
2023-09-14T00:49:07.159Z,10.05
2023-09-14T00:52:28.895Z,9.90
2023-09-14T00:55:52.871Z,10.65
2023-09-14T00:59:14.576Z,12.38
2023-09-14T01:02:37.003Z,10.77
2023-09-14T01:05:59.615Z,12.73
2023-09-14T01:09:21.522Z,10.65
2023-09-14T01:12:45.371Z,9.73
2023-09-14T01:16:16.396Z,10.55
2023-09-14T01:19:45.613Z,11.25
2023-09-14T01:23:29.568Z,12.80
2023-09-14T01:26:53.817Z,12.07
2023-09-14T01:30:15.598Z,11.90
2023-09-14T01:33:37.672Z,13.18
2023-09-14T01:37:02.336Z,11.65
2023-09-14T01:40:25.226Z,14.85
2023-09-14T01:43:52.838Z,10.63
2023-09-14T01:47:14.580Z,13.02
2023-09-14T01:50:36.375Z,12.75
2023-09-14T01:53:58.300Z,11.30
2023-09-14T01:57:20.086Z,13.10
2023-09-14T02:00:43.077Z,10.55
2023-09-14T02:04:05.636Z,12.50
2023-09-14T02:07:27.226Z,11.05
2023-09-14T02:10:48.764Z,5.50
2023-09-14T02:14:10.593Z,2.50
2023-09-14T02:17:33.891Z,2.45
2023-09-14T02:20:55.864Z,0.50
2023-09-14T02:24:17.810Z,0.40
2023-09-14T02:27:39.332Z,0.85
2023-09-14T02:31:01.104Z,0.30
2023-09-14T02:34:24.531Z,0.35
2023-09-14T02:37:46.349Z,1.75
2023-09-14T02:41:08.076Z,1.33
2023-09-14T02:44:29.859Z,1.00
2023-09-14T02:47:51.899Z,1.83
2023-09-14T02:51:14.957Z,1.40
2023-09-14T02:54:36.465Z,2.63
2023-09-14T02:57:58.274Z,2.15
2023-09-14T03:01:22.236Z,3.28
2023-09-14T03:04:44.244Z,3.00
2023-09-14T03:08:07.646Z,1.83
2023-09-14T03:11:29.308Z,2.20
2023-09-14T03:14:51.176Z,3.70
2023-09-14T03:18:12.997Z,2.10
2023-09-14T03:21:34.737Z,1.50
2023-09-14T03:24:57.902Z,1.15
2023-09-14T03:28:20.516Z,0.80
2023-09-14T03:31:42.230Z,4.13
2023-09-14T03:35:05.087Z,0.80
2023-09-14T03:38:26.686Z,1.30
2023-09-14T03:41:50.484Z,2.45
2023-09-14T03:45:12.686Z,1.67
2023-09-14T03:48:34.782Z,1.55
2023-09-14T03:51:56.637Z,1.60
2023-09-14T03:55:18.715Z,1.48
2023-09-14T03:58:44.013Z,1.73
2023-09-14T04:02:06.328Z,2.95
2023-09-14T04:05:28.286Z,3.47
2023-09-14T04:08:49.982Z,2.65
2023-09-14T04:12:11.933Z,4.20
2023-09-14T04:15:35.113Z,1.65
2023-09-14T04:19:02.190Z,1.35
2023-09-14T04:22:24.285Z,3.70
2023-09-14T04:25:49.409Z,1.42
2023-09-14T04:29:11.267Z,1.73
2023-09-14T04:32:34.374Z,1.55
2023-09-14T04:36:00.034Z,1.65
2023-09-14T04:39:21.719Z,2.35
2023-09-14T04:42:43.579Z,2.17
2023-09-14T04:46:06.841Z,1.67
2023-09-14T04:49:30.156Z,1.33
2023-09-14T04:52:51.731Z,1.42
2023-09-14T04:56:13.596Z,2.97
2023-09-14T04:59:35.220Z,1.65
2023-09-14T05:02:57.047Z,2.08
2023-09-14T05:06:20.212Z,1.38
2023-09-14T05:09:41.796Z,2.03
2023-09-14T05:13:05.346Z,1.50
2023-09-14T05:16:27.815Z,1.30
2023-09-14T05:19:49.383Z,5.70
2023-09-14T05:23:12.616Z,5.75
2023-09-14T05:26:34.416Z,14.90
2023-09-14T05:29:55.861Z,4.82
2023-09-14T05:33:17.395Z,5.05
2023-09-14T05:36:39.255Z,2.92
2023-09-14T05:40:09.618Z,5.22
2023-09-14T05:43:31.501Z,2.90
2023-09-14T05:46:53.039Z,1.98
2023-09-14T05:50:14.767Z,3.53
2023-09-14T05:53:36.805Z,4.22
2023-09-14T05:56:59.696Z,2.38
2023-09-14T06:00:21.740Z,1.45
2023-09-14T06:03:43.821Z,2.55
2023-09-14T06:07:06.150Z,3.20
2023-09-14T06:10:28.289Z,2.83
2023-09-14T06:13:51.704Z,1.85
2023-09-14T06:17:13.774Z,3.90
2023-09-14T06:20:35.907Z,1.83
2023-09-14T06:23:57.725Z,2.78
2023-09-14T06:27:19.671Z,3.90
2023-09-14T06:30:43.153Z,3.17
2023-09-14T06:34:05.215Z,4.07
2023-09-14T06:37:27.080Z,2.13
2023-09-14T06:40:48.894Z,1.80
2023-09-14T06:44:10.684Z,4.47
2023-09-14T06:47:33.801Z,2.88
2023-09-14T06:50:55.777Z,2.55
2023-09-14T06:54:17.331Z,3.85
2023-09-14T06:57:39.064Z,5.47
2023-09-14T07:01:04.940Z,3.45
2023-09-14T07:04:30.143Z,4.13
2023-09-14T07:07:51.977Z,2.70
2023-09-14T07:11:14.189Z,3.88
2023-09-14T07:14:36.016Z,14.20
2023-09-14T07:17:58.003Z,5.47
2023-09-14T07:21:21.163Z,3.80
2023-09-14T07:24:42.699Z,3.90
2023-09-14T07:28:04.477Z,3.92
2023-09-14T07:31:26.783Z,3.60
2023-09-14T07:34:48.905Z,4.05
2023-09-14T07:38:13.511Z,4.20
2023-09-14T07:41:35.453Z,4.57
2023-09-14T07:44:57.515Z,3.45
2023-09-14T07:48:19.463Z,2.42
2023-09-14T07:51:41.258Z,2.50
2023-09-14T07:55:05.678Z,2.58
2023-09-14T07:58:27.537Z,3.90
2023-09-14T08:01:49.289Z,3.30
2023-09-14T08:05:10.983Z,4.15
2023-09-14T08:08:34.441Z,4.68
2023-09-14T08:11:57.844Z,3.50
2023-09-14T08:15:19.467Z,2.58
2023-09-14T08:18:41.396Z,3.88
2023-09-14T08:22:05.086Z,3.30
2023-09-14T08:25:26.893Z,2.60
2023-09-14T08:28:50.298Z,2.60
2023-09-14T08:32:11.795Z,2.22
2023-09-14T08:35:34.877Z,3.47
2023-09-14T08:39:11.073Z,3.40
2023-09-14T08:42:37.965Z,3.10
2023-09-14T08:46:02.899Z,4.47
2023-09-14T08:49:28.887Z,3.20
2023-09-14T08:52:51.672Z,2.67
2023-09-14T08:56:15.939Z,3.47
2023-09-14T08:59:39.676Z,2.72
2023-09-14T09:03:02.958Z,2.92
2023-09-14T09:06:25.727Z,3.00
2023-09-14T09:09:49.522Z,2.33
2023-09-14T09:13:11.293Z,2.03
2023-09-14T09:16:34.112Z,2.60
2023-09-14T09:19:57.492Z,2.28
2023-09-14T09:23:22.228Z,3.47
2023-09-14T09:26:43.892Z,2.65
2023-09-14T09:30:06.511Z,2.97
2023-09-14T09:33:37.395Z,1.75
2023-09-14T09:37:01.008Z,1.42
2023-09-14T09:40:25.219Z,1.73
2023-09-14T09:43:47.327Z,2.97
2023-09-14T09:47:13.666Z,4.72
2023-09-14T09:50:35.825Z,2.10
2023-09-14T09:54:06.871Z,1.48
2023-09-14T09:57:31.448Z,2.03
2023-09-14T10:00:59.691Z,2.28
2023-09-14T10:04:21.702Z,3.23
2023-09-14T10:07:43.791Z,1.83
2023-09-14T10:11:07.794Z,2.05
2023-09-14T10:14:31.390Z,1.50
2023-09-14T10:17:56.609Z,4.55
2023-09-14T10:21:19.909Z,5.40
2023-09-14T10:24:41.914Z,1.73
2023-09-14T10:28:08.742Z,2.50
2023-09-14T10:31:31.803Z,1.83
2023-09-14T10:35:05.592Z,2.08
2023-09-14T10:38:29.204Z,1.88
2023-09-14T10:41:51.040Z,3.83
2023-09-14T10:45:16.244Z,3.22
2023-09-14T10:48:38.416Z,2.08
2023-09-14T10:52:00.124Z,3.90
2023-09-14T10:55:26.939Z,3.75
2023-09-14T10:58:52.674Z,2.65
2023-09-14T11:03:01.042Z,2.63
2023-09-14T11:06:44.716Z,1.85
2023-09-14T11:10:08.816Z,3.45
2023-09-14T11:13:37.339Z,1.67
2023-09-14T11:17:02.010Z,1.88
2023-09-14T11:20:46.107Z,1.42
2023-09-14T11:24:09.504Z,1.83
2023-09-14T11:27:37.280Z,0.90
2023-09-14T11:31:00.198Z,1.63
2023-09-14T11:34:29.389Z,1.30
2023-09-14T11:37:55.418Z,2.90
2023-09-14T11:41:43.628Z,1.58
2023-09-14T11:45:12.724Z,1.90
2023-09-14T11:52:05.883Z,1.00
2023-09-14T11:55:29.785Z,0.88
2023-09-14T11:58:51.460Z,1.75
2023-09-14T12:02:14.476Z,2.97
2023-09-14T12:05:36.564Z,1.77
2023-09-14T12:08:59.696Z,1.70
2023-09-14T12:12:30.921Z,1.77
2023-09-14T12:16:01.318Z,1.23
2023-09-14T12:19:23.638Z,1.48
2023-09-14T12:22:46.716Z,1.30
2023-09-14T12:26:09.633Z,2.47
2023-09-14T12:29:32.976Z,1.30
2023-09-14T12:33:05.195Z,3.00
2023-09-14T12:36:27.537Z,1.92
2023-09-14T12:39:53.578Z,1.67
2023-09-14T12:43:19.479Z,3.88
2023-09-14T12:46:41.066Z,1.27
2023-09-14T12:50:05.369Z,1.80
2023-09-14T12:53:27.939Z,0.93
2023-09-14T12:56:49.453Z,1.48
2023-09-14T13:00:16.376Z,1.77
2023-09-14T13:03:40.158Z,1.80
2023-09-14T13:07:05.281Z,1.38
2023-09-14T13:10:29.227Z,1.77
2023-09-14T13:13:51.388Z,1.17
2023-09-14T13:17:22.323Z,2.63
2023-09-14T13:20:49.699Z,2.67
2023-09-14T13:24:12.947Z,2.13
2023-09-14T13:32:15.019Z,2.55
2023-09-14T13:35:36.921Z,1.55
2023-09-14T13:38:58.772Z,2.22
2023-09-14T13:42:21.717Z,1.52
2023-09-14T13:45:43.674Z,1.85
2023-09-14T13:49:06.279Z,2.10
2023-09-14T13:52:28.421Z,3.20
2023-09-14T13:55:52.119Z,1.42
2023-09-14T13:59:15.156Z,2.33
2023-09-14T14:02:36.839Z,1.08
2023-09-14T14:05:58.799Z,1.77
2023-09-14T14:09:22.014Z,1.80
2023-09-14T14:12:44.683Z,1.17
2023-09-14T14:16:08.491Z,1.02
2023-09-14T14:19:30.598Z,3.30
2023-09-14T14:22:52.457Z,2.17
2023-09-14T14:26:14.097Z,2.75
2023-09-14T14:29:36.229Z,1.85
2023-09-14T14:32:59.242Z,1.38
2023-09-14T14:36:22.465Z,1.83
2023-09-14T14:39:44.131Z,1.73
2023-09-14T14:43:06.757Z,2.53
2023-09-14T14:46:28.666Z,1.55
2023-09-14T14:49:51.751Z,4.97
2023-09-14T14:53:13.161Z,2.13
2023-09-14T14:56:34.919Z,1.13
2023-09-14T14:59:56.476Z,1.88
2023-09-14T15:03:18.535Z,2.40
2023-09-14T15:06:42.110Z,2.90
2023-09-14T15:10:04.861Z,1.73
2023-09-14T15:13:26.902Z,1.52
2023-09-14T15:16:49.191Z,1.85
2023-09-14T15:20:12.121Z,1.70
2023-09-14T15:23:36.085Z,2.88
2023-09-14T15:26:57.984Z,1.88
2023-09-14T15:30:19.958Z,2.60
2023-09-14T15:33:42.038Z,2.03
2023-09-14T15:37:04.186Z,2.85
2023-09-14T15:40:27.490Z,1.80
2023-09-14T15:43:50.085Z,2.60
2023-09-14T15:47:12.205Z,2.42
2023-09-14T15:50:34.001Z,3.17
2023-09-14T15:53:55.878Z,2.15
2023-09-14T15:57:19.193Z,3.60
2023-09-14T16:00:40.851Z,1.63
2023-09-14T16:04:03.047Z,2.42
2023-09-14T16:07:24.828Z,2.22
2023-09-14T16:10:46.831Z,2.30
2023-09-14T16:14:11.287Z,2.78
2023-09-14T16:17:33.322Z,1.70
2023-09-14T16:20:55.147Z,2.00
2023-09-14T16:24:17.281Z,3.22
2023-09-14T16:27:40.094Z,6.28
2023-09-14T16:31:03.413Z,3.92
2023-09-14T16:34:25.496Z,3.28
2023-09-14T16:37:47.378Z,5.18
2023-09-14T16:41:09.296Z,2.20
2023-09-14T16:44:31.110Z,3.30
2023-09-14T16:47:55.191Z,2.70
2023-09-14T16:51:17.392Z,1.48
2023-09-14T16:54:39.175Z,1.92
2023-09-14T16:58:01.681Z,1.75
2023-09-14T17:01:23.530Z,1.52
2023-09-14T17:04:47.256Z,1.10
2023-09-14T17:08:09.358Z,1.80
2023-09-14T17:11:31.133Z,1.63
2023-09-14T17:14:52.708Z,2.25
2023-09-14T17:18:15.951Z,8.20
2023-09-14T17:21:39.402Z,1.85
2023-09-14T17:25:01.394Z,1.27
2023-09-14T17:28:24.570Z,1.67
2023-09-14T17:31:46.174Z,2.13
2023-09-14T17:35:10.768Z,1.35
2023-09-14T17:38:33.960Z,1.42
2023-09-14T17:41:55.721Z,1.23
2023-09-14T17:45:17.732Z,1.63
2023-09-14T17:48:39.905Z,1.88
2023-09-14T17:52:01.733Z,2.47
2023-09-14T17:55:25.284Z,0.90
2023-09-14T17:58:47.241Z,1.30
2023-09-14T18:02:10.349Z,1.20
2023-09-14T18:05:32.824Z,2.03
2023-09-14T18:08:54.531Z,2.15
2023-09-14T18:12:17.916Z,1.30
2023-09-14T18:15:40.866Z,1.38
2023-09-14T18:19:02.960Z,2.70
2023-09-14T18:22:24.974Z,2.75
2023-09-14T18:25:46.928Z,1.17
2023-09-14T18:29:12.209Z,0.93
2023-09-14T18:32:34.797Z,1.63
2023-09-14T18:35:57.319Z,0.98
2023-09-14T18:39:20.184Z,3.95
2023-09-14T18:42:43.603Z,1.20
2023-09-14T18:46:11.236Z,2.47
2023-09-14T18:49:32.969Z,1.73
2023-09-14T18:52:54.895Z,3.17
2023-09-14T18:56:17.063Z,1.77
2023-09-14T18:59:38.813Z,2.08
2023-09-14T19:03:02.596Z,2.63
2023-09-14T19:06:24.670Z,1.88
2023-09-14T19:09:46.668Z,1.88
2023-09-14T19:13:09.048Z,1.63
2023-09-14T19:16:32.743Z,2.13
2023-09-14T19:19:55.755Z,1.60
2023-09-14T19:23:17.850Z,1.60
2023-09-14T19:26:39.748Z,1.90
2023-09-14T19:30:01.710Z,1.42
2023-09-14T19:33:23.225Z,1.17
2023-09-14T19:36:46.521Z,2.60
2023-09-14T19:40:09.627Z,1.88
2023-09-14T19:43:31.385Z,2.85
2023-09-14T19:46:53.082Z,4.47
2023-09-14T19:50:16.148Z,1.73
2023-09-14T19:53:40.924Z,3.78
2023-09-14T19:57:02.956Z,1.05
2023-09-14T20:00:24.807Z,1.77
2023-09-14T20:03:46.744Z,2.53
2023-09-14T20:07:09.055Z,2.50
2023-09-14T20:10:33.882Z,1.10
2023-09-14T20:13:55.778Z,2.08
2023-09-14T20:17:17.740Z,1.50
2023-09-14T20:20:39.590Z,3.08
2023-09-14T20:24:01.607Z,1.80
2023-09-14T20:27:25.102Z,1.40
2023-09-14T20:30:47.812Z,1.52
2023-09-14T20:34:10.116Z,2.65
2023-09-14T20:37:31.908Z,2.45
2023-09-14T20:40:56.241Z,3.63
2023-09-14T20:44:19.805Z,2.35
2023-09-14T20:47:43.014Z,3.22
2023-09-14T20:51:09.352Z,1.00
2023-09-14T20:54:31.462Z,1.95
2023-09-14T20:57:59.078Z,2.25
2023-09-14T21:01:22.549Z,4.80
2023-09-14T21:04:44.290Z,1.00
2023-09-14T21:08:07.181Z,1.85
2023-09-14T21:11:28.979Z,2.25
2023-09-14T21:14:50.990Z,0.95
2023-09-14T21:18:14.970Z,2.33
2023-09-14T21:21:37.845Z,1.55
2023-09-14T21:25:00.477Z,0.93
2023-09-14T21:28:22.620Z,1.20
2023-09-14T21:31:44.720Z,1.73
2023-09-14T21:35:09.884Z,0.88
2023-09-14T21:38:32.026Z,1.77
2023-09-14T21:41:53.729Z,2.10
2023-09-14T21:45:15.606Z,2.95
2023-09-14T21:48:38.080Z,0.98
2023-09-14T21:52:01.501Z,2.25
2023-09-14T21:55:23.117Z,1.05
2023-09-14T21:58:44.696Z,1.23
2023-09-14T22:02:07.636Z,1.27
2023-09-14T22:05:29.577Z,2.35
2023-09-14T22:08:53.378Z,1.88
2023-09-14T22:12:15.265Z,2.78
2023-09-14T22:15:37.022Z,1.85
2023-09-14T22:18:59.544Z,1.70
2023-09-14T22:22:21.521Z,1.63
2023-09-14T22:25:44.477Z,1.00
2023-09-14T22:29:06.702Z,2.53
2023-09-14T22:32:29.192Z,1.30
2023-09-14T22:35:50.997Z,1.38
2023-09-14T22:39:13.730Z,1.45
2023-09-14T22:42:37.258Z,1.05
2023-09-14T22:45:59.124Z,1.75
2023-09-14T22:49:21.881Z,1.52
2023-09-14T22:52:44.378Z,0.68
2023-09-14T22:56:11.125Z,0.73
2023-09-14T22:59:34.465Z,2.28
2023-09-14T23:02:56.169Z,1.02
2023-09-14T23:06:18.585Z,1.45
2023-09-14T23:09:42.152Z,1.98
2023-09-14T23:13:04.142Z,1.33
2023-09-14T23:16:28.465Z,1.05
2023-09-14T23:19:52.566Z,0.88
2023-09-14T23:23:14.344Z,1.33
2023-09-14T23:26:36.708Z,2.13
2023-09-14T23:29:58.660Z,0.68
2023-09-14T23:33:21.932Z,1.30
2023-09-14T23:36:45.849Z,1.90
2023-09-14T23:40:12.782Z,0.63
2023-09-14T23:43:35.245Z,0.63
2023-09-14T23:46:57.464Z,0.70
2023-09-14T23:50:21.050Z,1.08
2023-09-14T23:53:43.601Z,1.88
2023-09-14T23:57:05.815Z,1.02
